sensor_id;sensor_type;location;lat;lon;timestamp;pressure;altitude;pressure_sealevel;temperature;humidity
53659;BME280;41524;35.624;139.698;2022-07-06T00:00:13;100280.00;;;25.93;71.18
53659;BME280;41524;35.624;139.698;2022-07-06T00:05:10;100276.00;;;25.38;71.47
53659;BME280;41524;35.624;139.698;2022-07-06T00:10:11;100264.00;;;25.19;71.13
53659;BME280;41524;35.624;139.698;2022-07-06T00:15:11;100253.00;;;24.95;72.02
53659;BME280;41524;35.624;139.698;2022-07-06T00:20:10;100257.00;;;26.02;69.20
53659;BME280;41524;35.624;139.698;2022-07-06T00:25:16;100268.00;;;26.11;69.73
53659;BME280;41524;35.624;139.698;2022-07-06T00:30:11;100262.00;;;25.48;70.43
53659;BME280;41524;35.624;139.698;2022-07-06T00:35:17;100266.00;;;25.88;70.34
53659;BME280;41524;35.624;139.698;2022-07-06T00:40:16;100263.00;;;25.59;69.37
53659;BME280;41524;35.624;139.698;2022-07-06T00:45:12;100278.00;;;25.79;69.12
53659;BME280;41524;35.624;139.698;2022-07-06T00:50:12;100284.00;;;26.07;67.85
53659;BME280;41524;35.624;139.698;2022-07-06T00:55:12;100277.00;;;25.22;70.61
53659;BME280;41524;35.624;139.698;2022-07-06T01:00:14;100274.00;;;25.43;68.64
53659;BME280;41524;35.624;139.698;2022-07-06T01:05:12;100278.00;;;25.97;67.57
53659;BME280;41524;35.624;139.698;2022-07-06T01:10:15;100272.00;;;27.40;64.75
53659;BME280;41524;35.624;139.698;2022-07-06T01:15:12;100267.00;;;26.05;66.40
53659;BME280;41524;35.624;139.698;2022-07-06T01:20:11;100256.00;;;27.21;63.70
53659;BME280;41524;35.624;139.698;2022-07-06T01:25:11;100248.00;;;26.86;63.91
53659;BME280;41524;35.624;139.698;2022-07-06T01:30:13;100247.00;;;26.71;63.31
53659;BME280;41524;35.624;139.698;2022-07-06T01:35:12;100246.00;;;26.89;62.69
53659;BME280;41524;35.624;139.698;2022-07-06T01:40:17;100252.00;;;26.98;62.61
53659;BME280;41524;35.624;139.698;2022-07-06T01:45:16;100259.00;;;26.00;64.64
53659;BME280;41524;35.624;139.698;2022-07-06T01:50:11;100258.00;;;27.12;61.78
53659;BME280;41524;35.624;139.698;2022-07-06T01:55:11;100256.00;;;26.94;62.27
53659;BME280;41524;35.624;139.698;2022-07-06T02:00:12;100245.00;;;26.87;62.44
53659;BME280;41524;35.624;139.698;2022-07-06T02:05:17;100247.00;;;27.62;60.78
53659;BME280;41524;35.624;139.698;2022-07-06T02:10:11;100241.00;;;25.17;66.42
53659;BME280;41524;35.624;139.698;2022-07-06T02:15:12;100240.00;;;26.95;62.09
53659;BME280;41524;35.624;139.698;2022-07-06T02:20:11;100246.00;;;26.68;62.15
53659;BME280;41524;35.624;139.698;2022-07-06T02:25:11;100251.00;;;28.01;60.29
53659;BME280;41524;35.624;139.698;2022-07-06T02:30:11;100250.00;;;27.77;60.83
53659;BME280;41524;35.624;139.698;2022-07-06T02:35:12;100243.00;;;27.88;60.23
53659;BME280;41524;35.624;139.698;2022-07-06T02:40:13;100236.00;;;26.08;64.77
53659;BME280;41524;35.624;139.698;2022-07-06T02:45:11;100231.00;;;27.08;62.70
53659;BME280;41524;35.624;139.698;2022-07-06T02:50:10;100246.00;;;27.60;60.78
53659;BME280;41524;35.624;139.698;2022-07-06T02:55:10;100246.00;;;28.04;59.61
53659;BME280;41524;35.624;139.698;2022-07-06T03:00:11;100244.00;;;27.14;61.55
53659;BME280;41524;35.624;139.698;2022-07-06T03:05:11;100243.00;;;28.39;59.49
53659;BME280;41524;35.624;139.698;2022-07-06T03:10:13;100239.00;;;27.61;61.51
53659;BME280;41524;35.624;139.698;2022-07-06T03:15:11;100243.00;;;29.01;57.24
53659;BME280;41524;35.624;139.698;2022-07-06T03:20:12;100247.00;;;27.41;60.65
53659;BME280;41524;35.624;139.698;2022-07-06T03:25:11;100241.00;;;26.48;62.48
53659;BME280;41524;35.624;139.698;2022-07-06T03:30:12;100241.00;;;27.72;59.71
53659;BME280;41524;35.624;139.698;2022-07-06T03:35:10;100242.00;;;26.69;61.88
53659;BME280;41524;35.624;139.698;2022-07-06T03:40:14;100239.00;;;26.60;62.26
53659;BME280;41524;35.624;139.698;2022-07-06T03:45:11;100233.00;;;27.85;59.42
53659;BME280;41524;35.624;139.698;2022-07-06T03:50:11;100229.00;;;28.52;56.87
53659;BME280;41524;35.624;139.698;2022-07-06T03:55:11;100227.00;;;28.64;56.10
53659;BME280;41524;35.624;139.698;2022-07-06T04:00:11;100229.00;;;27.97;57.48
53659;BME280;41524;35.624;139.698;2022-07-06T04:05:10;100235.00;;;26.93;60.12
53659;BME280;41524;35.624;139.698;2022-07-06T04:10:11;100236.00;;;26.87;61.20
53659;BME280;41524;35.624;139.698;2022-07-06T04:15:12;100253.00;;;27.51;60.01
53659;BME280;41524;35.624;139.698;2022-07-06T04:20:11;100247.00;;;27.86;59.48
53659;BME280;41524;35.624;139.698;2022-07-06T04:25:11;100263.00;;;26.58;61.83
53659;BME280;41524;35.624;139.698;2022-07-06T04:30:12;100260.00;;;27.04;61.35
53659;BME280;41524;35.624;139.698;2022-07-06T04:35:11;100266.00;;;28.11;59.54
53659;BME280;41524;35.624;139.698;2022-07-06T04:40:11;100279.00;;;27.27;61.44
53659;BME280;41524;35.624;139.698;2022-07-06T04:45:14;100279.00;;;27.41;61.34
53659;BME280;41524;35.624;139.698;2022-07-06T04:50:11;100273.00;;;26.18;63.36
53659;BME280;41524;35.624;139.698;2022-07-06T04:55:10;100277.00;;;27.10;62.23
53659;BME280;41524;35.624;139.698;2022-07-06T05:00:12;100274.00;;;28.06;60.44
53659;BME280;41524;35.624;139.698;2022-07-06T05:05:13;100277.00;;;27.49;61.68
53659;BME280;41524;35.624;139.698;2022-07-06T05:10:11;100279.00;;;27.90;60.87
53659;BME280;41524;35.624;139.698;2022-07-06T05:15:11;100274.00;;;28.08;60.52
53659;BME280;41524;35.624;139.698;2022-07-06T05:20:10;100271.00;;;28.15;60.31
53659;BME280;41524;35.624;139.698;2022-07-06T05:25:12;100273.00;;;29.04;58.55
53659;BME280;41524;35.624;139.698;2022-07-06T05:30:11;100274.00;;;27.75;60.28
53659;BME280;41524;35.624;139.698;2022-07-06T05:35:10;100274.00;;;27.95;60.17
53659;BME280;41524;35.624;139.698;2022-07-06T05:40:12;100269.00;;;27.96;60.63
53659;BME280;41524;35.624;139.698;2022-07-06T05:45:11;100276.00;;;27.14;62.79
53659;BME280;41524;35.624;139.698;2022-07-06T05:50:12;100275.00;;;28.22;61.00
53659;BME280;41524;35.624;139.698;2022-07-06T05:55:11;100276.00;;;28.31;59.37
53659;BME280;41524;35.624;139.698;2022-07-06T06:00:10;100282.00;;;28.60;58.83
53659;BME280;41524;35.624;139.698;2022-07-06T06:05:12;100278.00;;;28.53;59.00
53659;BME280;41524;35.624;139.698;2022-07-06T06:10:13;100270.00;;;28.18;59.90
53659;BME280;41524;35.624;139.698;2022-07-06T06:15:12;100272.00;;;28.79;58.38
53659;BME280;41524;35.624;139.698;2022-07-06T06:20:13;100272.00;;;26.61;62.43
53659;BME280;41524;35.624;139.698;2022-07-06T06:25:10;100272.00;;;27.61;61.27
53659;BME280;41524;35.624;139.698;2022-07-06T06:30:17;100277.00;;;27.62;61.31
53659;BME280;41524;35.624;139.698;2022-07-06T06:35:11;100279.00;;;29.02;58.46
53659;BME280;41524;35.624;139.698;2022-07-06T06:40:12;100286.00;;;28.98;57.53
53659;BME280;41524;35.624;139.698;2022-07-06T06:45:11;100290.00;;;28.95;57.42
53659;BME280;41524;35.624;139.698;2022-07-06T06:50:12;100291.00;;;29.84;56.16
53659;BME280;41524;35.624;139.698;2022-07-06T06:55:11;100286.00;;;26.31;63.17
53659;BME280;41524;35.624;139.698;2022-07-06T07:00:12;100268.00;;;28.07;59.75
53659;BME280;41524;35.624;139.698;2022-07-06T07:05:11;100279.00;;;29.84;56.59
53659;BME280;41524;35.624;139.698;2022-07-06T07:10:12;100287.00;;;30.31;55.14
53659;BME280;41524;35.624;139.698;2022-07-06T07:15:10;100288.00;;;30.45;54.82
53659;BME280;41524;35.624;139.698;2022-07-06T07:20:11;100288.00;;;28.24;59.00
53659;BME280;41524;35.624;139.698;2022-07-06T07:25:11;100286.00;;;27.25;62.43
53659;BME280;41524;35.624;139.698;2022-07-06T07:30:11;100291.00;;;29.57;56.20
53659;BME280;41524;35.624;139.698;2022-07-06T07:35:10;100307.00;;;27.39;62.15
53659;BME280;41524;35.624;139.698;2022-07-06T07:40:11;100314.00;;;27.84;61.78
53659;BME280;41524;35.624;139.698;2022-07-06T07:45:11;100319.00;;;26.09;66.22
53659;BME280;41524;35.624;139.698;2022-07-06T07:50:11;100331.00;;;24.95;69.23
53659;BME280;41524;35.624;139.698;2022-07-06T07:55:11;100343.00;;;25.67;67.78
53659;BME280;41524;35.624;139.698;2022-07-06T08:00:12;100344.00;;;25.27;68.56
53659;BME280;41524;35.624;139.698;2022-07-06T08:05:10;100351.00;;;24.51;70.03
53659;BME280;41524;35.624;139.698;2022-07-06T08:10:11;100368.00;;;24.15;71.04
53659;BME280;41524;35.624;139.698;2022-07-06T08:15:11;100376.00;;;25.63;68.12
53659;BME280;41524;35.624;139.698;2022-07-06T08:20:13;100377.00;;;23.80;73.36
53659;BME280;41524;35.624;139.698;2022-07-06T08:25:11;100384.00;;;24.54;70.66
53659;BME280;41524;35.624;139.698;2022-07-06T08:30:13;100405.00;;;24.43;69.39
53659;BME280;41524;35.624;139.698;2022-07-06T08:35:11;100405.00;;;23.48;72.94
53659;BME280;41524;35.624;139.698;2022-07-06T08:40:11;100414.00;;;24.65;69.83
53659;BME280;41524;35.624;139.698;2022-07-06T08:45:11;100420.00;;;24.97;70.06
53659;BME280;41524;35.624;139.698;2022-07-06T08:50:11;100429.00;;;24.40;72.47
53659;BME280;41524;35.624;139.698;2022-07-06T08:55:10;100449.00;;;24.79;71.82
53659;BME280;41524;35.624;139.698;2022-07-06T09:00:13;100455.00;;;23.23;77.83
53659;BME280;41524;35.624;139.698;2022-07-06T09:05:17;100460.00;;;23.59;76.64
53659;BME280;41524;35.624;139.698;2022-07-06T09:10:10;100471.00;;;24.34;74.10
53659;BME280;41524;35.624;139.698;2022-07-06T09:15:11;100478.00;;;22.60;78.71
53659;BME280;41524;35.624;139.698;2022-07-06T09:20:13;100483.00;;;22.35;80.21
53659;BME280;41524;35.624;139.698;2022-07-06T09:25:21;100480.00;;;23.46;78.02
53659;BME280;41524;35.624;139.698;2022-07-06T09:30:13;100489.00;;;24.41;75.10
53659;BME280;41524;35.624;139.698;2022-07-06T09:35:22;100496.00;;;23.42;76.10
53659;BME280;41524;35.624;139.698;2022-07-06T09:40:17;100501.00;;;23.22;77.05
53659;BME280;41524;35.624;139.698;2022-07-06T09:45:11;100511.00;;;23.93;75.61
53659;BME280;41524;35.624;139.698;2022-07-06T09:50:10;100517.00;;;23.49;77.85
53659;BME280;41524;35.624;139.698;2022-07-06T09:55:16;100537.00;;;22.05;81.09
53659;BME280;41524;35.624;139.698;2022-07-06T10:00:12;100541.00;;;22.68;78.21
53659;BME280;41524;35.624;139.698;2022-07-06T10:05:11;100543.00;;;23.52;76.51
53659;BME280;41524;35.624;139.698;2022-07-06T10:10:10;100560.00;;;24.37;73.92
53659;BME280;41524;35.624;139.698;2022-07-06T10:15:11;100567.00;;;22.78;77.18
53659;BME280;41524;35.624;139.698;2022-07-06T10:20:12;100575.00;;;21.95;81.10
53659;BME280;41524;35.624;139.698;2022-07-06T10:25:13;100581.00;;;22.19;82.16
53659;BME280;41524;35.624;139.698;2022-07-06T10:30:13;100579.00;;;23.26;78.03
53659;BME280;41524;35.624;139.698;2022-07-06T10:35:11;100576.00;;;21.76;84.07
53659;BME280;41524;35.624;139.698;2022-07-06T10:40:14;100599.00;;;23.56;78.32
53659;BME280;41524;35.624;139.698;2022-07-06T10:45:12;100606.00;;;23.06;78.39
53659;BME280;41524;35.624;139.698;2022-07-06T10:50:11;100620.00;;;22.47;81.54
53659;BME280;41524;35.624;139.698;2022-07-06T10:55:30;100628.00;;;23.96;76.01
53659;BME280;41524;35.624;139.698;2022-07-06T11:00:17;100635.00;;;21.71;84.67
53659;BME280;41524;35.624;139.698;2022-07-06T11:05:14;100641.00;;;22.11;84.68
53659;BME280;41524;35.624;139.698;2022-07-06T11:10:16;100655.00;;;22.90;79.54
53659;BME280;41524;35.624;139.698;2022-07-06T11:15:11;100656.00;;;23.77;76.51
53659;BME280;41524;35.624;139.698;2022-07-06T11:20:12;100663.00;;;21.92;82.02
53659;BME280;41524;35.624;139.698;2022-07-06T11:25:16;100666.00;;;21.63;83.19
53659;BME280;41524;35.624;139.698;2022-07-06T11:30:11;100679.00;;;22.50;80.28
53659;BME280;41524;35.624;139.698;2022-07-06T11:35:11;100684.00;;;23.20;77.27
53659;BME280;41524;35.624;139.698;2022-07-06T11:40:12;100684.00;;;20.97;84.09
53659;BME280;41524;35.624;139.698;2022-07-06T11:45:11;100687.00;;;24.80;71.17
53659;BME280;41524;35.624;139.698;2022-07-06T11:50:21;100690.00;;;24.19;70.52
53659;BME280;41524;35.624;139.698;2022-07-06T11:55:13;100694.00;;;23.47;73.52
53659;BME280;41524;35.624;139.698;2022-07-06T12:00:13;100695.00;;;20.41;84.18
53659;BME280;41524;35.624;139.698;2022-07-06T12:05:12;100696.00;;;22.51;77.88
53659;BME280;41524;35.624;139.698;2022-07-06T12:10:32;100696.00;;;24.22;72.85
53659;BME280;41524;35.624;139.698;2022-07-06T12:15:11;100705.00;;;23.99;70.77
53659;BME280;41524;35.624;139.698;2022-07-06T12:20:11;100711.00;;;22.27;76.91
53659;BME280;41524;35.624;139.698;2022-07-06T12:25:11;100715.00;;;23.11;75.45
53659;BME280;41524;35.624;139.698;2022-07-06T12:30:16;100718.00;;;22.07;79.78
53659;BME280;41524;35.624;139.698;2022-07-06T12:35:11;100731.00;;;23.46;74.66
53659;BME280;41524;35.624;139.698;2022-07-06T12:40:17;100739.00;;;23.17;74.89
53659;BME280;41524;35.624;139.698;2022-07-06T12:45:16;100734.00;;;23.75;73.52
53659;BME280;41524;35.624;139.698;2022-07-06T12:50:12;100739.00;;;22.57;77.66
53659;BME280;41524;35.624;139.698;2022-07-06T12:55:11;100734.00;;;21.68;81.09
53659;BME280;41524;35.624;139.698;2022-07-06T13:00:11;100739.00;;;22.32;77.54
53659;BME280;41524;35.624;139.698;2022-07-06T13:05:12;100751.00;;;23.03;76.04
53659;BME280;41524;35.624;139.698;2022-07-06T13:10:21;100753.00;;;23.56;74.70
53659;BME280;41524;35.624;139.698;2022-07-06T13:15:11;100756.00;;;23.38;75.73
53659;BME280;41524;35.624;139.698;2022-07-06T13:20:17;100759.00;;;24.59;71.43
53659;BME280;41524;35.624;139.698;2022-07-06T13:25:13;100759.00;;;22.29;78.88
53659;BME280;41524;35.624;139.698;2022-07-06T13:30:11;100760.00;;;22.70;77.29
53659;BME280;41524;35.624;139.698;2022-07-06T13:35:21;100746.00;;;24.87;70.19
53659;BME280;41524;35.624;139.698;2022-07-06T13:40:11;100737.00;;;24.64;68.98
53659;BME280;41524;35.624;139.698;2022-07-06T13:45:10;100733.00;;;25.41;66.96
53659;BME280;41524;35.624;139.698;2022-07-06T13:50:11;100730.00;;;24.65;67.84
53659;BME280;41524;35.624;139.698;2022-07-06T13:55:17;100736.00;;;24.15;69.90
53659;BME280;41524;35.624;139.698;2022-07-06T14:00:12;100731.00;;;24.90;66.90
53659;BME280;41524;35.624;139.698;2022-07-06T14:05:11;100733.00;;;21.89;76.33
53659;BME280;41524;35.624;139.698;2022-07-06T14:10:15;100735.00;;;23.52;71.56
53659;BME280;41524;35.624;139.698;2022-07-06T14:15:10;100742.00;;;23.06;72.92
53659;BME280;41524;35.624;139.698;2022-07-06T14:20:16;100736.00;;;22.37;76.11
53659;BME280;41524;35.624;139.698;2022-07-06T14:25:11;100737.00;;;23.53;73.43
53659;BME280;41524;35.624;139.698;2022-07-06T14:30:16;100734.00;;;20.04;84.31
53659;BME280;41524;35.624;139.698;2022-07-06T14:35:11;100730.00;;;22.39;78.09
53659;BME280;41524;35.624;139.698;2022-07-06T14:40:11;100733.00;;;23.35;74.96
53659;BME280;41524;35.624;139.698;2022-07-06T14:45:15;100730.00;;;24.07;72.47
53659;BME280;41524;35.624;139.698;2022-07-06T14:50:15;100739.00;;;23.91;71.42
53659;BME280;41524;35.624;139.698;2022-07-06T14:55:12;100741.00;;;23.05;74.02
53659;BME280;41524;35.624;139.698;2022-07-06T15:00:17;100738.00;;;24.48;71.54
53659;BME280;41524;35.624;139.698;2022-07-06T15:05:16;100740.00;;;23.19;74.23
53659;BME280;41524;35.624;139.698;2022-07-06T15:10:11;100730.00;;;23.08;74.04
53659;BME280;41524;35.624;139.698;2022-07-06T15:15:16;100727.00;;;22.90;74.59
53659;BME280;41524;35.624;139.698;2022-07-06T15:20:11;100727.00;;;23.69;72.30
53659;BME280;41524;35.624;139.698;2022-07-06T15:25:12;100727.00;;;23.41;73.29
53659;BME280;41524;35.624;139.698;2022-07-06T15:30:12;100714.00;;;22.59;75.51
53659;BME280;41524;35.624;139.698;2022-07-06T15:35:11;100710.00;;;22.86;75.33
53659;BME280;41524;35.624;139.698;2022-07-06T15:40:11;100717.00;;;23.34;74.38
53659;BME280;41524;35.624;139.698;2022-07-06T15:45:11;100716.00;;;20.97;80.51
53659;BME280;41524;35.624;139.698;2022-07-06T15:50:11;100714.00;;;22.45;77.19
53659;BME280;41524;35.624;139.698;2022-07-06T15:55:11;100715.00;;;22.45;76.55
53659;BME280;41524;35.624;139.698;2022-07-06T16:00:11;100717.00;;;24.05;71.61
53659;BME280;41524;35.624;139.698;2022-07-06T16:05:10;100720.00;;;21.14;80.38
53659;BME280;41524;35.624;139.698;2022-07-06T16:10:19;100723.00;;;24.07;71.88
53659;BME280;41524;35.624;139.698;2022-07-06T16:15:11;100726.00;;;25.03;68.85
53659;BME280;41524;35.624;139.698;2022-07-06T16:20:12;100726.00;;;23.67;72.32
53659;BME280;41524;35.624;139.698;2022-07-06T16:25:13;100721.00;;;24.18;70.88
53659;BME280;41524;35.624;139.698;2022-07-06T16:30:13;100728.00;;;24.02;72.08
53659;BME280;41524;35.624;139.698;2022-07-06T16:35:11;100734.00;;;23.89;72.06
53659;BME280;41524;35.624;139.698;2022-07-06T16:40:11;100727.00;;;24.10;71.16
53659;BME280;41524;35.624;139.698;2022-07-06T16:45:10;100721.00;;;24.46;71.22
53659;BME280;41524;35.624;139.698;2022-07-06T16:50:10;100726.00;;;23.38;73.59
53659;BME280;41524;35.624;139.698;2022-07-06T16:55:10;100726.00;;;24.04;71.53
53659;BME280;41524;35.624;139.698;2022-07-06T17:00:13;100724.00;;;24.62;70.12
53659;BME280;41524;35.624;139.698;2022-07-06T17:05:11;100719.00;;;24.25;72.85
53659;BME280;41524;35.624;139.698;2022-07-06T17:10:12;100722.00;;;23.98;75.43
53659;BME280;41524;35.624;139.698;2022-07-06T17:15:10;100720.00;;;24.99;73.55
53659;BME280;41524;35.624;139.698;2022-07-06T17:20:12;100729.00;;;23.16;79.26
53659;BME280;41524;35.624;139.698;2022-07-06T17:25:11;100726.00;;;23.48;77.97
53659;BME280;41524;35.624;139.698;2022-07-06T17:30:16;100723.00;;;22.39;81.37
53659;BME280;41524;35.624;139.698;2022-07-06T17:35:11;100724.00;;;23.42;77.91
53659;BME280;41524;35.624;139.698;2022-07-06T17:40:12;100711.00;;;24.20;75.85
53659;BME280;41524;35.624;139.698;2022-07-06T17:45:11;100710.00;;;24.48;75.52
53659;BME280;41524;35.624;139.698;2022-07-06T17:50:10;100717.00;;;24.62;74.93
53659;BME280;41524;35.624;139.698;2022-07-06T17:55:11;100721.00;;;24.64;74.11
53659;BME280;41524;35.624;139.698;2022-07-06T18:00:11;100726.00;;;24.11;74.99
53659;BME280;41524;35.624;139.698;2022-07-06T18:05:11;100716.00;;;24.55;73.50
53659;BME280;41524;35.624;139.698;2022-07-06T18:10:11;100712.00;;;25.14;72.95
53659;BME280;41524;35.624;139.698;2022-07-06T18:15:11;100712.00;;;24.69;73.17
53659;BME280;41524;35.624;139.698;2022-07-06T18:20:11;100719.00;;;25.07;72.51
53659;BME280;41524;35.624;139.698;2022-07-06T18:25:11;100720.00;;;24.47;73.94
53659;BME280;41524;35.624;139.698;2022-07-06T18:30:14;100709.00;;;25.13;72.14
53659;BME280;41524;35.624;139.698;2022-07-06T18:35:10;100711.00;;;21.99;79.96
53659;BME280;41524;35.624;139.698;2022-07-06T18:40:12;100719.00;;;24.39;74.56
53659;BME280;41524;35.624;139.698;2022-07-06T18:45:12;100716.00;;;24.14;75.43
53659;BME280;41524;35.624;139.698;2022-07-06T18:50:13;100712.00;;;22.30;80.06
53659;BME280;41524;35.624;139.698;2022-07-06T18:55:10;100717.00;;;23.49;76.89
53659;BME280;41524;35.624;139.698;2022-07-06T19:00:11;100712.00;;;24.95;72.88
53659;BME280;41524;35.624;139.698;2022-07-06T19:05:11;100715.00;;;24.20;75.17
53659;BME280;41524;35.624;139.698;2022-07-06T19:10:11;100710.00;;;25.42;71.75
53659;BME280;41524;35.624;139.698;2022-07-06T19:15:11;100713.00;;;24.57;73.72
53659;BME280;41524;35.624;139.698;2022-07-06T19:20:12;100709.00;;;23.83;75.94
53659;BME280;41524;35.624;139.698;2022-07-06T19:25:13;100709.00;;;24.79;74.41
53659;BME280;41524;35.624;139.698;2022-07-06T19:30:11;100711.00;;;24.76;73.48
53659;BME280;41524;35.624;139.698;2022-07-06T19:35:13;100724.00;;;24.28;74.79
53659;BME280;41524;35.624;139.698;2022-07-06T19:40:11;100728.00;;;21.40;82.51
53659;BME280;41524;35.624;139.698;2022-07-06T19:45:11;100742.00;;;23.47;77.12
53659;BME280;41524;35.624;139.698;2022-07-06T19:50:12;100743.00;;;23.63;76.91
53659;BME280;41524;35.624;139.698;2022-07-06T19:55:11;100744.00;;;23.45;77.17
53659;BME280;41524;35.624;139.698;2022-07-06T20:00:16;100746.00;;;23.01;78.39
53659;BME280;41524;35.624;139.698;2022-07-06T20:05:12;100754.00;;;23.58;76.10
53659;BME280;41524;35.624;139.698;2022-07-06T20:10:10;100753.00;;;20.46;86.48
53659;BME280;41524;35.624;139.698;2022-07-06T20:15:11;100760.00;;;21.94;83.49
53659;BME280;41524;35.624;139.698;2022-07-06T20:20:11;100771.00;;;22.59;80.21
53659;BME280;41524;35.624;139.698;2022-07-06T20:25:10;100775.00;;;23.78;76.76
53659;BME280;41524;35.624;139.698;2022-07-06T20:30:14;100778.00;;;25.04;74.04
53659;BME280;41524;35.624;139.698;2022-07-06T20:35:11;100773.00;;;24.12;75.40
53659;BME280;41524;35.624;139.698;2022-07-06T20:40:11;100777.00;;;23.96;75.29
53659;BME280;41524;35.624;139.698;2022-07-06T20:45:15;100784.00;;;23.89;76.06
53659;BME280;41524;35.624;139.698;2022-07-06T20:50:11;100786.00;;;24.15;76.48
53659;BME280;41524;35.624;139.698;2022-07-06T20:55:11;100776.00;;;22.81;79.86
53659;BME280;41524;35.624;139.698;2022-07-06T21:00:17;100781.00;;;23.60;77.60
53659;BME280;41524;35.624;139.698;2022-07-06T21:05:10;100780.00;;;23.13;79.55
53659;BME280;41524;35.624;139.698;2022-07-06T21:10:11;100788.00;;;23.95;76.78
53659;BME280;41524;35.624;139.698;2022-07-06T21:15:12;100796.00;;;23.86;76.08
53659;BME280;41524;35.624;139.698;2022-07-06T21:20:10;100799.00;;;22.33;81.50
53659;BME280;41524;35.624;139.698;2022-07-06T21:25:12;100805.00;;;23.74;76.90
53659;BME280;41524;35.624;139.698;2022-07-06T21:30:12;100806.00;;;24.93;72.94
53659;BME280;41524;35.624;139.698;2022-07-06T21:35:16;100811.00;;;24.98;72.44
53659;BME280;41524;35.624;139.698;2022-07-06T21:40:14;100814.00;;;25.11;71.64
53659;BME280;41524;35.624;139.698;2022-07-06T21:45:12;100815.00;;;25.36;71.24
53659;BME280;41524;35.624;139.698;2022-07-06T21:50:11;100813.00;;;25.09;72.05
53659;BME280;41524;35.624;139.698;2022-07-06T21:55:11;100814.00;;;25.04;70.40
53659;BME280;41524;35.624;139.698;2022-07-06T22:00:17;100816.00;;;24.46;71.38
53659;BME280;41524;35.624;139.698;2022-07-06T22:05:10;100814.00;;;23.43;73.24
53659;BME280;41524;35.624;139.698;2022-07-06T22:10:11;100823.00;;;23.97;72.10
53659;BME280;41524;35.624;139.698;2022-07-06T22:15:17;100814.00;;;22.62;75.95
53659;BME280;41524;35.624;139.698;2022-07-06T22:20:10;100813.00;;;23.27;74.14
53659;BME280;41524;35.624;139.698;2022-07-06T22:25:11;100814.00;;;23.54;75.25
53659;BME280;41524;35.624;139.698;2022-07-06T22:30:13;100821.00;;;21.82;79.58
53659;BME280;41524;35.624;139.698;2022-07-06T22:35:12;100820.00;;;24.85;71.79
53659;BME280;41524;35.624;139.698;2022-07-06T22:40:11;100823.00;;;26.19;72.48
53659;BME280;41524;35.624;139.698;2022-07-06T22:45:11;100821.00;;;25.96;70.25
53659;BME280;41524;35.624;139.698;2022-07-06T22:50:11;100819.00;;;23.72;73.88
53659;BME280;41524;35.624;139.698;2022-07-06T22:55:10;100818.00;;;22.27;79.49
53659;BME280;41524;35.624;139.698;2022-07-06T23:00:13;100826.00;;;24.39;72.77
53659;BME280;41524;35.624;139.698;2022-07-06T23:05:10;100827.00;;;25.14;69.76
53659;BME280;41524;35.624;139.698;2022-07-06T23:10:11;100826.00;;;25.50;68.55
53659;BME280;41524;35.624;139.698;2022-07-06T23:15:10;100828.00;;;23.58;73.38
53659;BME280;41524;35.624;139.698;2022-07-06T23:20:11;100820.00;;;22.49;74.25
53659;BME280;41524;35.624;139.698;2022-07-06T23:25:10;100820.00;;;24.78;71.44
53659;BME280;41524;35.624;139.698;2022-07-06T23:30:12;100817.00;;;23.14;73.22
53659;BME280;41524;35.624;139.698;2022-07-06T23:35:11;100824.00;;;24.08;71.44
53659;BME280;41524;35.624;139.698;2022-07-06T23:40:13;100824.00;;;23.80;73.16
53659;BME280;41524;35.624;139.698;2022-07-06T23:45:11;100816.00;;;22.67;75.09
53659;BME280;41524;35.624;139.698;2022-07-06T23:50:12;100819.00;;;22.53;74.89
53659;BME280;41524;35.624;139.698;2022-07-06T23:55:16;100824.00;;;23.79;71.06
